createdAt,value
2023-04-12T00:00:22.974Z,86.60
2023-04-12T00:03:28.695Z,86.37
2023-04-12T00:06:34.069Z,86.80
2023-04-12T00:09:38.074Z,86.65
2023-04-12T00:12:42.129Z,86.11
2023-04-12T00:15:46.580Z,86.53
2023-04-12T00:18:51.683Z,86.38
2023-04-12T00:21:56.967Z,86.47
2023-04-12T00:25:00.758Z,86.57
2023-04-12T00:28:05.086Z,86.75
2023-04-12T00:31:09.958Z,86.14
2023-04-12T00:34:13.933Z,86.68
2023-04-12T00:37:18.971Z,86.45
2023-04-12T00:40:22.766Z,87.09
2023-04-12T00:43:27.930Z,86.93
2023-04-12T00:46:31.556Z,87.24
2023-04-12T00:49:35.815Z,87.05
2023-04-12T00:52:41.734Z,86.95
2023-04-12T00:55:47.246Z,86.67
2023-04-12T00:58:51.165Z,86.74
2023-04-12T01:01:55.339Z,86.41
2023-04-12T01:04:58.850Z,87.12
2023-04-12T01:08:15.220Z,87.25
2023-04-12T01:11:27.994Z,87.21
2023-04-12T01:14:44.875Z,87.61
2023-04-12T01:17:58.418Z,86.80
2023-04-12T01:21:09.069Z,87.81
2023-04-12T01:24:29.234Z,87.16
2023-04-12T01:27:43.759Z,86.52
2023-04-12T01:30:52.681Z,86.51
2023-04-12T01:34:01.382Z,86.98
2023-04-12T01:37:06.397Z,86.67
2023-04-12T01:40:11.435Z,86.59
2023-04-12T01:43:16.794Z,86.44
2023-04-12T01:46:24.263Z,86.09
2023-04-12T01:49:37.634Z,85.76
2023-04-12T01:52:54.138Z,86.85
2023-04-12T01:56:01.415Z,86.65
2023-04-12T01:59:09.333Z,86.69
2023-04-12T02:02:14.466Z,86.22
2023-04-12T02:05:18.696Z,85.81
2023-04-12T02:08:22.899Z,85.32
2023-04-12T02:11:26.555Z,85.57
2023-04-12T02:14:31.945Z,85.09
2023-04-12T02:17:36.361Z,85.21
2023-04-12T02:20:41.087Z,86.15
2023-04-12T02:23:45.237Z,85.65
2023-04-12T02:26:49.916Z,86.07
2023-04-12T02:29:55.140Z,85.89
2023-04-12T02:32:58.854Z,85.90
2023-04-12T02:36:11.416Z,86.06
2023-04-12T02:39:19.013Z,86.02
2023-04-12T02:42:24.977Z,85.69
2023-04-12T02:45:30.165Z,86.29
2023-04-12T02:48:34.415Z,86.55
2023-04-12T02:51:38.603Z,86.83
2023-04-12T02:54:42.757Z,86.48
2023-04-12T02:57:52.331Z,86.15
2023-04-12T03:01:00.480Z,86.78
2023-04-12T03:04:09.683Z,86.71
2023-04-12T03:07:22.531Z,86.17
2023-04-12T03:10:27.889Z,85.97
2023-04-12T03:13:37.958Z,85.84
2023-04-12T03:16:44.313Z,85.63
2023-04-12T03:19:52.608Z,85.70
2023-04-12T03:22:57.678Z,85.73
2023-04-12T03:26:01.358Z,85.92
2023-04-12T03:29:11.271Z,86.57
2023-04-12T03:32:18.340Z,86.14
2023-04-12T03:35:22.979Z,85.79
2023-04-12T03:38:28.042Z,85.90
2023-04-12T03:41:32.375Z,85.80
2023-04-12T03:44:39.171Z,85.37
2023-04-12T03:47:48.752Z,85.14
2023-04-12T03:50:54.789Z,85.63
2023-04-12T03:54:00.170Z,85.13
2023-04-12T03:57:04.244Z,85.70
2023-04-12T04:00:27.988Z,85.54
2023-04-12T04:03:43.952Z,85.30
2023-04-12T04:07:01.354Z,85.58
2023-04-12T04:10:09.185Z,85.64
2023-04-12T04:13:16.824Z,85.13
2023-04-12T04:16:20.545Z,84.75
2023-04-12T04:19:27.264Z,84.97
2023-04-12T04:22:32.696Z,85.05
2023-04-12T04:25:39.574Z,84.35
2023-04-12T04:28:46.413Z,83.75
2023-04-12T04:31:54.079Z,83.78
2023-04-12T04:35:00.854Z,84.11
2023-04-12T04:38:15.963Z,84.71
2023-04-12T04:41:22.967Z,84.99
2023-04-12T04:44:32.085Z,85.55
2023-04-12T04:47:36.843Z,85.75
2023-04-12T04:50:41.922Z,85.25
2023-04-12T04:53:46.024Z,85.33
2023-04-12T04:56:51.236Z,84.59
2023-04-12T04:59:56.153Z,84.83
2023-04-12T05:03:00.907Z,84.91
2023-04-12T05:06:07.744Z,85.11
2023-04-12T05:09:14.605Z,85.31
2023-04-12T05:12:24.416Z,85.42
2023-04-12T05:15:32.619Z,85.11
2023-04-12T05:18:37.212Z,85.13
2023-04-12T05:21:42.246Z,85.60
2023-04-12T05:24:46.121Z,85.63
2023-04-12T05:27:51.912Z,85.19
2023-04-12T05:30:56.750Z,85.67
2023-04-12T05:34:07.322Z,85.62
2023-04-12T05:37:18.070Z,85.44
2023-04-12T05:40:21.557Z,85.14
2023-04-12T05:43:28.269Z,84.72
2023-04-12T05:46:34.083Z,85.21
2023-04-12T05:49:38.155Z,84.56
2023-04-12T05:52:46.341Z,84.83
2023-04-12T05:55:50.149Z,83.98
2023-04-12T05:58:55.071Z,83.69
2023-04-12T06:01:59.305Z,84.17
2023-04-12T06:05:04.318Z,83.19
2023-04-12T06:08:10.509Z,83.65
2023-04-12T06:11:14.056Z,82.62
2023-04-12T06:14:19.069Z,82.94
2023-04-12T06:17:23.547Z,82.35
2023-04-12T06:20:27.047Z,83.01
2023-04-12T06:23:32.554Z,82.96
2023-04-12T06:26:39.801Z,83.09
2023-04-12T06:29:44.491Z,83.02
2023-04-12T06:32:48.752Z,83.12
2023-04-12T06:35:52.610Z,82.79
2023-04-12T06:38:57.656Z,82.70
2023-04-12T06:42:01.945Z,81.89
2023-04-12T06:45:06.250Z,81.57
2023-04-12T06:48:09.791Z,81.22
2023-04-12T06:51:13.454Z,82.03
2023-04-12T06:54:18.632Z,81.71
2023-04-12T06:57:22.491Z,82.45
2023-04-12T07:00:26.568Z,82.27
2023-04-12T07:03:33.369Z,81.44
2023-04-12T07:06:36.838Z,81.62
2023-04-12T07:09:41.834Z,82.12
2023-04-12T07:12:45.359Z,81.75
2023-04-12T07:15:50.672Z,81.16
2023-04-12T07:18:54.262Z,81.11
2023-04-12T07:21:57.841Z,80.91
2023-04-12T07:25:02.760Z,79.90
2023-04-12T07:28:08.701Z,80.05
2023-04-12T07:31:12.589Z,78.72
2023-04-12T07:34:16.233Z,78.64
2023-04-12T07:37:20.514Z,76.39
2023-04-12T07:40:25.947Z,76.78
2023-04-12T07:43:29.741Z,76.84
2023-04-12T07:46:33.226Z,76.75
2023-04-12T07:49:36.749Z,75.54
2023-04-12T07:52:40.468Z,74.32
2023-04-12T07:55:45.552Z,74.22
2023-04-12T07:58:49.403Z,72.63
2023-04-12T08:01:53.124Z,73.67
2023-04-12T08:04:56.618Z,73.90
2023-04-12T08:08:00.382Z,74.03
2023-04-12T08:11:06.778Z,72.09
2023-04-12T08:14:10.693Z,71.44
2023-04-12T08:17:14.059Z,71.82
2023-04-12T08:20:17.805Z,71.66
2023-04-12T08:23:21.656Z,72.33
2023-04-12T08:26:29.944Z,70.67
2023-04-12T08:29:34.950Z,70.98
2023-04-12T08:32:39.219Z,68.03
2023-04-12T08:35:51.331Z,67.81
2023-04-12T08:38:56.186Z,68.59
2023-04-12T08:42:02.276Z,66.72
2023-04-12T08:45:07.404Z,67.90
2023-04-12T08:48:11.347Z,67.75
2023-04-12T08:51:16.002Z,68.15
2023-04-12T08:54:19.635Z,68.22
2023-04-12T08:57:24.667Z,65.39
2023-04-12T09:00:28.903Z,66.25
2023-04-12T09:03:33.596Z,64.82
2023-04-12T09:06:37.614Z,64.07
2023-04-12T09:09:45.551Z,65.13
2023-04-12T09:12:52.307Z,65.59
2023-04-12T09:15:56.430Z,65.15
2023-04-12T09:19:02.639Z,64.58
2023-04-12T09:22:06.373Z,63.94
2023-04-12T09:25:10.166Z,64.17
2023-04-12T09:28:23.336Z,63.97
2023-04-12T09:31:26.943Z,62.46
2023-04-12T09:34:30.898Z,61.38
2023-04-12T09:37:34.416Z,59.95
2023-04-12T09:40:39.083Z,60.33
2023-04-12T09:43:44.214Z,59.74
2023-04-12T09:46:53.269Z,58.79
2023-04-12T09:49:57.001Z,60.58
2023-04-12T09:53:01.716Z,58.45
2023-04-12T09:56:06.146Z,56.50
2023-04-12T09:59:12.576Z,54.23
2023-04-12T10:02:18.114Z,53.02
2023-04-12T10:05:26.945Z,52.06
2023-04-12T10:08:32.942Z,50.22
2023-04-12T10:11:36.774Z,51.90
2023-04-12T10:14:43.642Z,52.60
2023-04-12T10:17:49.153Z,52.71
2023-04-12T10:20:52.920Z,52.54
2023-04-12T10:23:57.742Z,53.49
2023-04-12T10:27:03.511Z,53.05
2023-04-12T10:30:24.922Z,51.65
2023-04-12T10:33:29.521Z,54.34
2023-04-12T10:36:55.137Z,53.97
2023-04-12T10:39:58.655Z,55.80
2023-04-12T10:43:27.973Z,54.93
2023-04-12T10:46:51.777Z,53.89
2023-04-12T10:50:25.369Z,55.67
2023-04-12T10:53:33.426Z,55.46
2023-04-12T10:56:43.375Z,54.91
2023-04-12T10:59:59.728Z,54.71
2023-04-12T11:03:12.941Z,52.64
2023-04-12T11:06:27.204Z,54.72
2023-04-12T11:10:15.247Z,53.94
2023-04-12T11:13:19.082Z,53.77
2023-04-12T11:16:22.791Z,51.33
2023-04-12T11:19:27.826Z,52.88
2023-04-12T11:22:33.005Z,52.85
2023-04-12T11:25:39.089Z,52.30
2023-04-12T11:28:43.188Z,53.29
2023-04-12T11:31:46.781Z,53.00
2023-04-12T11:34:52.099Z,51.55
2023-04-12T11:37:57.621Z,52.24
2023-04-12T11:41:02.716Z,49.69
2023-04-12T11:44:07.187Z,51.26
2023-04-12T11:47:23.551Z,50.85
2023-04-12T11:50:42.169Z,52.79
2023-04-12T11:53:53.522Z,52.31
2023-04-12T11:56:58.699Z,51.70
2023-04-12T12:00:07.220Z,49.84
2023-04-12T12:03:19.323Z,52.15
2023-04-12T12:06:26.478Z,50.97
2023-04-12T12:09:31.364Z,51.22
2023-04-12T12:12:35.886Z,48.74
2023-04-12T12:15:40.328Z,49.91
2023-04-12T12:18:45.743Z,50.30
2023-04-12T12:21:50.781Z,51.51
2023-04-12T12:24:57.894Z,51.86
2023-04-12T12:28:05.517Z,50.37
2023-04-12T12:31:13.927Z,51.19
2023-04-12T12:34:19.875Z,46.22
2023-04-12T12:37:27.079Z,46.46
2023-04-12T12:40:33.019Z,49.20
2023-04-12T12:43:36.483Z,46.55
2023-04-12T12:46:53.630Z,45.48
2023-04-12T12:50:00.589Z,46.32
2023-04-12T12:53:07.128Z,44.17
2023-04-12T12:56:11.510Z,42.28
2023-04-12T12:59:15.045Z,43.49
2023-04-12T13:02:20.085Z,42.67
2023-04-12T13:05:23.942Z,40.40
2023-04-12T13:08:29.269Z,41.20
2023-04-12T13:11:33.013Z,38.83
2023-04-12T13:14:36.736Z,38.24
2023-04-12T13:17:40.568Z,37.76
2023-04-12T13:20:44.385Z,38.69
2023-04-12T13:23:54.796Z,39.37
2023-04-12T13:26:59.395Z,38.63
2023-04-12T13:30:06.013Z,39.59
2023-04-12T13:33:14.892Z,39.14
2023-04-12T13:36:20.790Z,38.78
2023-04-12T13:39:26.100Z,38.59
2023-04-12T13:42:30.378Z,38.83
2023-04-12T13:45:34.893Z,40.02
2023-04-12T13:48:38.439Z,40.92
2023-04-12T13:51:43.531Z,38.95
2023-04-12T13:54:48.962Z,38.12
2023-04-12T13:57:52.459Z,38.95
2023-04-12T14:00:56.900Z,39.29
2023-04-12T14:04:00.638Z,38.99
2023-04-12T14:07:04.126Z,40.55
2023-04-12T14:10:11.662Z,40.83
2023-04-12T14:13:15.599Z,40.81
2023-04-12T14:16:19.242Z,42.27
2023-04-12T14:19:22.739Z,42.56
2023-04-12T14:22:26.513Z,40.91
2023-04-12T14:25:31.473Z,38.19
2023-04-12T14:28:35.623Z,38.40
2023-04-12T14:31:39.771Z,36.84
2023-04-12T14:34:44.541Z,36.47
2023-04-12T14:37:48.259Z,38.02
2023-04-12T14:40:54.581Z,37.60
2023-04-12T14:43:58.387Z,37.14
2023-04-12T14:47:03.501Z,36.20
2023-04-12T14:50:08.589Z,37.28
2023-04-12T14:53:14.128Z,36.29
2023-04-12T14:56:29.756Z,35.69
2023-04-12T14:59:34.739Z,37.30
2023-04-12T15:02:41.371Z,37.08
2023-04-12T15:05:45.932Z,39.13
2023-04-12T15:08:49.778Z,39.09
2023-04-12T15:12:01.042Z,37.86
2023-04-12T15:15:06.420Z,38.90
2023-04-12T15:18:10.620Z,39.21
2023-04-12T15:21:14.941Z,40.21
2023-04-12T15:24:18.447Z,40.31
2023-04-12T15:27:23.528Z,38.92
2023-04-12T15:30:26.880Z,38.22
2023-04-12T15:33:34.430Z,37.20
2023-04-12T15:36:38.456Z,38.93
2023-04-12T15:39:42.533Z,37.30
2023-04-12T15:42:47.672Z,37.89
2023-04-12T15:45:53.566Z,38.12
2023-04-12T15:48:58.053Z,38.43
2023-04-12T15:52:01.920Z,38.86
2023-04-12T15:55:07.647Z,39.59
2023-04-12T15:58:13.795Z,40.30
2023-04-12T16:01:17.613Z,39.54
2023-04-12T16:04:21.178Z,38.65
2023-04-12T16:07:25.762Z,40.53
2023-04-12T16:10:30.455Z,39.71
2023-04-12T16:13:35.599Z,40.10
2023-04-12T16:16:40.645Z,41.89
2023-04-12T16:19:44.197Z,41.46
2023-04-12T16:22:48.378Z,42.02
2023-04-12T16:25:51.758Z,39.61
2023-04-12T16:28:59.360Z,40.22
2023-04-12T16:32:03.400Z,40.29
2023-04-12T16:35:08.230Z,40.74
2023-04-12T16:38:12.261Z,40.57
2023-04-12T16:41:17.409Z,41.48
2023-04-12T16:44:22.234Z,41.49
2023-04-12T16:47:26.164Z,41.40
2023-04-12T16:50:29.665Z,41.71
2023-04-12T16:53:33.098Z,41.48
2023-04-12T16:56:38.719Z,41.11
2023-04-12T16:59:43.686Z,41.24
2023-04-12T17:02:48.674Z,42.55
2023-04-12T17:05:52.828Z,42.88
2023-04-12T17:08:57.572Z,43.25
2023-04-12T17:12:02.940Z,44.15
2023-04-12T17:15:08.827Z,44.11
2023-04-12T17:18:12.479Z,44.75
2023-04-12T17:21:17.158Z,46.02
2023-04-12T17:24:20.808Z,46.16
2023-04-12T17:27:24.175Z,46.54
2023-04-12T17:30:29.650Z,47.93
2023-04-12T17:33:33.108Z,48.15
2023-04-12T17:36:36.571Z,46.97
2023-04-12T17:39:39.955Z,46.79
2023-04-12T17:42:44.648Z,47.80
2023-04-12T17:45:49.558Z,48.01
2023-04-12T17:48:52.983Z,48.79
2023-04-12T17:51:56.329Z,49.28
2023-04-12T17:54:59.724Z,50.92
2023-04-12T17:58:03.520Z,50.25
2023-04-12T18:01:08.374Z,50.54
2023-04-12T18:04:12.413Z,51.76
2023-04-12T18:07:15.883Z,52.09
2023-04-12T18:10:21.796Z,51.66
2023-04-12T18:13:25.326Z,52.95
2023-04-12T18:16:30.385Z,52.84
2023-04-12T18:19:33.839Z,52.28
2023-04-12T18:22:37.383Z,52.69
2023-04-12T18:25:40.790Z,52.55
2023-04-12T18:28:44.273Z,52.77
2023-04-12T18:31:49.058Z,54.64
2023-04-12T18:34:52.813Z,54.92
2023-04-12T18:37:56.468Z,55.11
2023-04-12T18:41:00.361Z,55.87
2023-04-12T18:44:03.875Z,56.32
2023-04-12T18:47:09.002Z,56.56
2023-04-12T18:50:12.756Z,57.55
2023-04-12T18:53:16.347Z,57.79
2023-04-12T18:56:23.824Z,58.83
2023-04-12T18:59:27.522Z,58.20
2023-04-12T19:02:34.386Z,57.37
2023-04-12T19:05:38.056Z,57.89
2023-04-12T19:08:43.310Z,57.75
2023-04-12T19:11:47.278Z,59.43
2023-04-12T19:14:51.174Z,60.13
2023-04-12T19:17:56.122Z,60.81
2023-04-12T19:20:59.472Z,60.14
2023-04-12T19:24:03.896Z,59.82
2023-04-12T19:27:07.857Z,60.70
2023-04-12T19:30:13.101Z,60.50
2023-04-12T19:33:17.940Z,60.45
2023-04-12T19:36:23.225Z,60.44
2023-04-12T19:39:27.114Z,60.30
2023-04-12T19:42:30.814Z,59.78
2023-04-12T19:45:34.241Z,60.19
2023-04-12T19:48:39.176Z,60.11
2023-04-12T19:51:43.543Z,59.84
2023-04-12T19:54:46.923Z,60.99
2023-04-12T19:57:51.396Z,61.82
2023-04-12T20:00:55.047Z,61.37
2023-04-12T20:03:59.825Z,61.49
2023-04-12T20:07:03.205Z,61.55
2023-04-12T20:10:10.367Z,61.87
2023-04-12T20:13:15.436Z,62.03
2023-04-12T20:16:19.641Z,63.27
2023-04-12T20:19:24.396Z,61.41
2023-04-12T20:22:27.873Z,62.93
2023-04-12T20:25:35.604Z,62.40
2023-04-12T20:28:39.088Z,61.97
2023-04-12T20:31:42.428Z,62.12
2023-04-12T20:34:49.097Z,62.79
2023-04-12T20:37:53.036Z,63.32
2023-04-12T20:40:57.511Z,63.33
2023-04-12T20:44:00.969Z,63.73
2023-04-12T20:47:04.449Z,63.20
2023-04-12T20:50:10.394Z,63.38
2023-04-12T20:53:15.830Z,63.71
2023-04-12T20:56:19.989Z,63.64
2023-04-12T20:59:24.036Z,63.92
2023-04-12T21:02:27.770Z,63.65
2023-04-12T21:05:33.903Z,63.23
2023-04-12T21:08:38.285Z,63.58
2023-04-12T21:11:42.104Z,62.75
2023-04-12T21:14:50.367Z,64.12
2023-04-12T21:17:54.310Z,65.31
2023-04-12T21:21:02.257Z,65.99
2023-04-12T21:24:07.562Z,66.12
2023-04-12T21:27:11.665Z,65.19
2023-04-12T21:30:15.819Z,65.77
2023-04-12T21:33:24.659Z,66.09
2023-04-12T21:36:30.451Z,66.56
2023-04-12T21:39:33.915Z,66.38
2023-04-12T21:42:38.538Z,67.00
2023-04-12T21:45:42.012Z,67.31
2023-04-12T21:48:45.475Z,67.54
2023-04-12T21:51:52.338Z,68.24
2023-04-12T21:54:55.953Z,68.37
2023-04-12T21:57:59.691Z,68.12
2023-04-12T22:01:04.041Z,68.82
2023-04-12T22:04:07.906Z,69.07
2023-04-12T22:07:16.949Z,69.57
2023-04-12T22:10:20.735Z,68.98
2023-04-12T22:13:24.830Z,68.49
2023-04-12T22:16:28.410Z,67.93
2023-04-12T22:19:31.859Z,67.66
2023-04-12T22:22:37.418Z,68.07
2023-04-12T22:25:40.832Z,67.87
2023-04-12T22:28:44.509Z,67.22
2023-04-12T22:31:50.188Z,67.64
2023-04-12T22:35:05.106Z,68.05
2023-04-12T22:38:14.823Z,68.25
2023-04-12T22:41:18.872Z,68.52
2023-04-12T22:44:22.908Z,69.02
2023-04-12T22:47:26.608Z,69.54
2023-04-12T22:50:30.031Z,69.97
2023-04-12T22:53:34.795Z,69.10
2023-04-12T22:56:45.224Z,69.58
2023-04-12T22:59:48.601Z,69.37
2023-04-12T23:02:53.848Z,69.03
2023-04-12T23:05:57.908Z,69.54
2023-04-12T23:09:05.863Z,68.94
2023-04-12T23:12:09.290Z,69.84
2023-04-12T23:15:13.016Z,70.26
2023-04-12T23:18:16.260Z,70.33
2023-04-12T23:21:19.817Z,70.28
2023-04-12T23:24:25.149Z,69.09
2023-04-12T23:27:29.179Z,69.29
2023-04-12T23:30:32.517Z,69.80
2023-04-12T23:33:35.991Z,69.70
2023-04-12T23:36:39.374Z,70.52
2023-04-12T23:39:44.307Z,71.13
2023-04-12T23:42:48.777Z,70.93
2023-04-12T23:45:53.341Z,71.08
2023-04-12T23:48:57.132Z,71.32
2023-04-12T23:52:00.725Z,70.60
2023-04-12T23:55:06.054Z,71.06
2023-04-12T23:58:09.443Z,71.13
